createdAt,value
2019-06-26T00:00:29.678Z,14.33
2019-06-26T00:02:57.955Z,14.20
2019-06-26T00:05:26.169Z,14.00
2019-06-26T00:07:54.489Z,15.30
2019-06-26T00:10:22.669Z,14.47
2019-06-26T00:12:51.024Z,14.33
2019-06-26T00:15:19.296Z,14.53
2019-06-26T00:17:47.472Z,14.57
2019-06-26T00:20:15.836Z,14.40
2019-06-26T00:22:44.029Z,14.17
2019-06-26T00:25:12.724Z,13.43
2019-06-26T00:27:40.947Z,13.70
2019-06-26T00:30:09.620Z,14.07
2019-06-26T00:32:37.833Z,14.00
2019-06-26T00:35:06.082Z,13.90
2019-06-26T00:37:34.285Z,13.57
2019-06-26T00:40:02.552Z,14.10
2019-06-26T00:42:30.808Z,13.80
2019-06-26T00:44:59.006Z,14.03
2019-06-26T00:47:27.206Z,15.10
2019-06-26T00:49:55.400Z,14.90
2019-06-26T00:52:23.581Z,14.20
2019-06-26T00:54:51.779Z,15.00
2019-06-26T00:57:19.977Z,14.83
2019-06-26T00:59:48.180Z,14.50
2019-06-26T01:02:16.440Z,14.23
2019-06-26T01:04:46.313Z,14.80
2019-06-26T01:07:14.538Z,15.00
2019-06-26T01:09:42.753Z,15.23
2019-06-26T01:12:10.944Z,14.97
2019-06-26T01:14:39.136Z,15.50
2019-06-26T01:17:07.361Z,16.20
2019-06-26T01:19:35.605Z,15.50
2019-06-26T01:22:03.876Z,15.23
2019-06-26T01:24:32.095Z,15.63
2019-06-26T01:27:00.329Z,16.37
2019-06-26T01:29:28.514Z,15.00
2019-06-26T01:31:56.737Z,16.63
2019-06-26T01:34:24.994Z,15.80
2019-06-26T01:36:53.221Z,15.90
2019-06-26T01:39:22.198Z,16.50
2019-06-26T01:41:50.405Z,15.70
2019-06-26T01:44:18.706Z,16.07
2019-06-26T01:46:46.929Z,15.50
2019-06-26T01:49:15.121Z,15.73
2019-06-26T01:51:43.341Z,17.67
2019-06-26T01:54:11.528Z,16.00
2019-06-26T01:56:39.753Z,16.63
2019-06-26T01:59:08.017Z,16.93
2019-06-26T02:01:36.232Z,17.20
2019-06-26T02:04:04.452Z,17.17
2019-06-26T02:06:32.640Z,17.00
2019-06-26T02:09:00.869Z,16.27
2019-06-26T02:11:29.160Z,16.97
2019-06-26T02:13:57.344Z,16.23
2019-06-26T02:16:25.543Z,16.93
2019-06-26T02:18:55.394Z,17.30
2019-06-26T02:21:23.648Z,17.47
2019-06-26T02:23:51.844Z,17.43
2019-06-26T02:26:21.505Z,16.83
2019-06-26T02:28:49.728Z,17.10
2019-06-26T02:31:17.950Z,16.90
2019-06-26T02:33:46.167Z,17.50
2019-06-26T02:36:14.459Z,18.20
2019-06-26T02:38:42.637Z,18.10
2019-06-26T02:41:10.837Z,17.43
2019-06-26T02:43:39.083Z,18.00
2019-06-26T02:46:07.314Z,17.60
2019-06-26T02:48:35.562Z,17.60
2019-06-26T02:51:03.753Z,17.87
2019-06-26T02:53:31.972Z,18.47
2019-06-26T02:56:00.179Z,18.87
2019-06-26T02:58:28.398Z,19.23
2019-06-26T03:00:56.597Z,18.47
2019-06-26T03:03:24.886Z,18.73
2019-06-26T03:05:53.073Z,19.17
2019-06-26T03:08:21.293Z,18.20
2019-06-26T03:10:49.488Z,18.17
2019-06-26T03:13:17.671Z,19.50
2019-06-26T03:15:45.861Z,19.20
2019-06-26T03:18:14.086Z,18.90
2019-06-26T03:20:46.514Z,19.13
2019-06-26T03:23:14.696Z,20.97
2019-06-26T03:25:42.917Z,20.00
2019-06-26T03:28:11.117Z,19.60
2019-06-26T03:30:39.330Z,19.67
2019-06-26T03:33:07.625Z,20.37
2019-06-26T03:35:35.800Z,21.50
2019-06-26T03:38:04.058Z,21.20
2019-06-26T03:40:32.243Z,19.43
2019-06-26T03:43:00.441Z,20.30
2019-06-26T03:45:28.628Z,20.93
2019-06-26T03:47:56.849Z,21.00
2019-06-26T03:50:25.299Z,20.50
2019-06-26T03:52:53.522Z,22.00
2019-06-26T03:55:21.741Z,21.53
2019-06-26T03:57:49.917Z,21.00
2019-06-26T04:00:25.701Z,21.07
2019-06-26T04:02:53.881Z,21.17
2019-06-26T04:05:22.174Z,22.50
2019-06-26T04:07:50.351Z,21.70
2019-06-26T04:10:18.577Z,22.20
2019-06-26T04:12:46.827Z,20.67
2019-06-26T04:15:15.020Z,21.80
2019-06-26T04:17:43.228Z,22.70
2019-06-26T04:20:11.527Z,22.07
2019-06-26T04:22:39.812Z,23.57
2019-06-26T04:25:08.504Z,22.63
2019-06-26T04:27:36.754Z,23.43
2019-06-26T04:30:06.556Z,21.60
2019-06-26T04:32:34.799Z,22.07
2019-06-26T04:35:02.995Z,22.50
2019-06-26T04:37:31.221Z,23.23
2019-06-26T04:39:59.398Z,22.37
2019-06-26T04:42:27.590Z,22.33
2019-06-26T04:44:55.824Z,22.60
2019-06-26T04:47:24.067Z,21.77
2019-06-26T04:49:52.298Z,23.20
2019-06-26T04:52:20.536Z,23.80
2019-06-26T04:54:48.756Z,23.47
2019-06-26T04:57:16.967Z,23.80
2019-06-26T04:59:45.201Z,23.77
2019-06-26T05:02:13.413Z,23.67
2019-06-26T05:04:41.603Z,23.37
2019-06-26T05:07:09.831Z,23.60
2019-06-26T05:09:38.051Z,25.27
2019-06-26T05:12:06.239Z,23.90
2019-06-26T05:14:34.462Z,24.00
2019-06-26T05:17:02.649Z,24.57
2019-06-26T05:19:30.880Z,24.10
2019-06-26T05:21:59.055Z,24.43
2019-06-26T05:24:27.264Z,23.53
2019-06-26T05:26:55.461Z,24.30
2019-06-26T05:29:23.642Z,24.10
2019-06-26T05:31:51.898Z,23.00
2019-06-26T05:34:20.128Z,24.83
2019-06-26T05:36:48.353Z,24.90
2019-06-26T05:39:16.560Z,24.00
2019-06-26T05:41:44.778Z,25.73
2019-06-26T05:44:12.997Z,25.20
2019-06-26T05:46:41.208Z,24.37
2019-06-26T05:49:09.428Z,24.50
2019-06-26T05:51:37.636Z,25.47
2019-06-26T05:54:06.398Z,24.13
2019-06-26T05:56:34.607Z,25.30
2019-06-26T05:59:02.861Z,24.10
2019-06-26T06:01:31.133Z,24.40
2019-06-26T06:03:59.318Z,24.57
2019-06-26T06:06:40.757Z,24.07
2019-06-26T06:08:57.493Z,25.07
2019-06-26T06:11:25.703Z,23.70
2019-06-26T06:13:53.888Z,24.73
2019-06-26T06:16:22.115Z,24.13
2019-06-26T06:18:50.289Z,24.53
2019-06-26T06:21:18.518Z,25.57
2019-06-26T06:23:46.695Z,24.53
2019-06-26T06:26:14.896Z,23.20
2019-06-26T06:28:43.101Z,23.20
2019-06-26T06:31:11.287Z,23.97
2019-06-26T06:33:39.471Z,24.40
2019-06-26T06:36:09.767Z,23.33
2019-06-26T06:38:37.572Z,23.80
2019-06-26T06:41:05.801Z,21.73
2019-06-26T06:43:34.076Z,23.10
2019-06-26T06:46:02.310Z,23.10
2019-06-26T06:48:30.578Z,23.23
2019-06-26T06:50:59.860Z,21.33
2019-06-26T06:53:28.103Z,22.10
2019-06-26T06:55:56.431Z,21.03
2019-06-26T06:58:24.648Z,21.20
2019-06-26T07:00:52.856Z,20.60
2019-06-26T07:03:21.030Z,21.67
2019-06-26T07:05:49.261Z,22.07
2019-06-26T07:08:17.480Z,21.00
2019-06-26T07:10:45.693Z,20.47
2019-06-26T07:13:13.887Z,21.60
2019-06-26T07:15:42.072Z,20.37
2019-06-26T07:18:10.297Z,20.20
2019-06-26T07:20:38.541Z,20.20
2019-06-26T07:23:06.792Z,19.30
2019-06-26T07:25:35.004Z,19.23
2019-06-26T07:28:03.240Z,20.10
2019-06-26T07:30:31.496Z,18.97
2019-06-26T07:32:59.675Z,18.30
2019-06-26T07:35:28.040Z,19.10
2019-06-26T07:38:00.000Z,19.23
2019-06-26T07:40:26.243Z,20.60
2019-06-26T07:42:54.806Z,20.60
2019-06-26T07:45:24.156Z,18.80
2019-06-26T07:47:52.712Z,18.33
2019-06-26T07:50:20.903Z,17.70
2019-06-26T07:52:49.159Z,18.83
2019-06-26T07:55:17.413Z,17.43
2019-06-26T07:57:45.636Z,18.93
2019-06-26T08:00:14.004Z,18.23
2019-06-26T08:02:42.288Z,17.60
2019-06-26T08:05:10.765Z,17.40
2019-06-26T08:07:38.954Z,16.33
2019-06-26T08:10:07.539Z,16.13
2019-06-26T08:12:35.781Z,17.07
2019-06-26T08:15:05.440Z,14.90
2019-06-26T08:17:33.761Z,16.43
2019-06-26T08:20:02.093Z,16.47
2019-06-26T08:22:30.296Z,16.10
2019-06-26T08:24:58.516Z,16.50
2019-06-26T08:27:26.794Z,15.60
2019-06-26T08:29:55.139Z,16.03
2019-06-26T08:32:25.917Z,16.60
2019-06-26T08:34:53.307Z,15.73
2019-06-26T08:37:21.526Z,15.67
2019-06-26T08:39:49.742Z,15.60
2019-06-26T08:42:17.972Z,16.47
2019-06-26T08:44:46.181Z,15.33
2019-06-26T08:47:14.467Z,15.70
2019-06-26T08:49:42.644Z,15.77
2019-06-26T08:52:10.872Z,16.20
2019-06-26T08:54:39.093Z,16.73
2019-06-26T08:57:07.274Z,16.00
2019-06-26T08:59:35.496Z,15.20
2019-06-26T09:02:03.727Z,14.20
2019-06-26T09:04:32.003Z,15.00
2019-06-26T09:07:00.192Z,15.77
2019-06-26T09:09:28.406Z,14.67
2019-06-26T09:11:56.613Z,14.27
2019-06-26T09:14:24.865Z,14.57
2019-06-26T09:16:53.044Z,14.57
2019-06-26T09:19:21.286Z,12.60
2019-06-26T09:21:49.461Z,12.87
2019-06-26T09:24:17.696Z,13.00
2019-06-26T09:26:46.073Z,13.07
2019-06-26T09:29:14.366Z,13.03
2019-06-26T09:31:42.555Z,12.90
2019-06-26T09:34:10.749Z,12.57
2019-06-26T09:36:38.927Z,12.00
2019-06-26T09:39:07.856Z,11.47
2019-06-26T09:41:36.040Z,12.70
2019-06-26T09:44:04.495Z,12.70
2019-06-26T09:46:32.755Z,12.00
2019-06-26T09:49:01.051Z,13.07
2019-06-26T09:51:29.360Z,12.90
2019-06-26T09:53:57.577Z,12.30
2019-06-26T09:56:25.776Z,11.77
2019-06-26T09:58:53.994Z,12.00
2019-06-26T10:01:22.297Z,12.67
2019-06-26T10:03:50.580Z,12.00
2019-06-26T10:06:18.803Z,11.40
2019-06-26T10:08:46.983Z,12.47
2019-06-26T10:11:15.228Z,12.40
2019-06-26T10:13:43.453Z,12.23
2019-06-26T10:16:11.724Z,12.43
2019-06-26T10:18:40.116Z,12.97
2019-06-26T10:21:08.464Z,11.40
2019-06-26T10:23:36.686Z,10.80
2019-06-26T10:26:04.900Z,11.37
2019-06-26T10:28:33.113Z,11.27
2019-06-26T10:31:01.302Z,11.10
2019-06-26T10:33:29.475Z,11.70
2019-06-26T10:35:57.667Z,11.50
2019-06-26T10:38:26.054Z,10.80
2019-06-26T10:40:54.265Z,10.80
2019-06-26T10:43:22.445Z,11.20
2019-06-26T10:45:50.666Z,10.83
2019-06-26T10:48:18.839Z,11.20
2019-06-26T10:50:51.880Z,11.20
2019-06-26T10:53:16.959Z,11.70
2019-06-26T10:55:45.156Z,11.30
2019-06-26T10:58:13.360Z,11.57
2019-06-26T11:00:41.559Z,11.57
2019-06-26T11:03:09.849Z,11.03
2019-06-26T11:05:38.023Z,11.13
2019-06-26T11:08:06.224Z,10.70
2019-06-26T11:10:34.461Z,10.63
2019-06-26T11:13:02.682Z,11.50
2019-06-26T11:15:31.020Z,11.00
2019-06-26T11:17:59.245Z,10.40
2019-06-26T11:20:27.448Z,10.63
2019-06-26T11:22:55.709Z,11.03
2019-06-26T11:25:23.956Z,10.37
2019-06-26T11:27:52.278Z,10.00
2019-06-26T11:30:21.450Z,10.07
2019-06-26T11:32:49.663Z,9.10
2019-06-26T11:35:17.848Z,9.93
2019-06-26T11:37:46.036Z,9.80
2019-06-26T11:40:14.513Z,9.60
2019-06-26T11:42:42.713Z,9.77
2019-06-26T11:45:12.102Z,9.73
2019-06-26T11:47:40.305Z,9.90
2019-06-26T11:50:10.225Z,10.30
2019-06-26T11:52:38.615Z,10.33
2019-06-26T11:55:07.554Z,11.20
2019-06-26T11:57:35.842Z,10.20
2019-06-26T12:00:07.761Z,10.57
2019-06-26T12:02:35.980Z,10.60
2019-06-26T12:05:05.738Z,10.33
2019-06-26T12:07:33.964Z,10.40
2019-06-26T12:10:02.504Z,10.03
2019-06-26T12:12:30.782Z,10.23
2019-06-26T12:14:59.009Z,11.00
2019-06-26T12:17:27.187Z,9.73
2019-06-26T12:19:55.403Z,10.17
2019-06-26T12:22:23.642Z,10.10
2019-06-26T12:24:51.850Z,10.60
2019-06-26T12:27:20.052Z,10.17
2019-06-26T12:29:48.267Z,10.30
2019-06-26T12:32:16.483Z,10.27
2019-06-26T12:34:46.244Z,10.20
2019-06-26T12:37:14.450Z,9.90
2019-06-26T12:39:42.614Z,9.50
2019-06-26T12:42:10.811Z,9.70
2019-06-26T12:44:39.024Z,9.07
2019-06-26T12:47:07.310Z,9.20
2019-06-26T12:49:35.490Z,9.50
2019-06-26T12:52:03.739Z,9.60
2019-06-26T12:54:31.953Z,9.28
2019-06-26T12:57:00.164Z,8.68
2019-06-26T12:59:28.384Z,9.25
2019-06-26T13:01:56.647Z,9.25
2019-06-26T13:04:24.823Z,9.30
2019-06-26T13:06:53.003Z,9.83
2019-06-26T13:09:21.216Z,9.50
2019-06-26T13:11:49.442Z,10.03
2019-06-26T13:14:17.608Z,9.18
2019-06-26T13:16:45.865Z,9.90
2019-06-26T13:19:14.100Z,9.35
2019-06-26T13:21:42.283Z,9.80
2019-06-26T13:24:10.495Z,9.45
2019-06-26T13:26:38.775Z,9.33
2019-06-26T13:29:09.831Z,8.83
2019-06-26T13:31:36.872Z,9.18
2019-06-26T13:34:05.048Z,9.50
2019-06-26T13:36:33.264Z,9.53
2019-06-26T13:39:01.451Z,8.68
2019-06-26T13:41:29.660Z,8.45
2019-06-26T13:44:00.021Z,8.85
2019-06-26T13:46:27.827Z,10.05
2019-06-26T13:48:56.058Z,10.10
2019-06-26T13:51:24.370Z,9.80
2019-06-26T13:53:52.617Z,9.10
2019-06-26T13:56:20.791Z,9.85
2019-06-26T13:58:49.011Z,9.85
2019-06-26T14:01:17.213Z,9.65
2019-06-26T14:03:45.440Z,10.05
2019-06-26T14:06:13.615Z,9.93
2019-06-26T14:08:41.833Z,9.53
2019-06-26T14:11:09.998Z,9.80
2019-06-26T14:13:41.664Z,10.05
2019-06-26T14:16:08.258Z,10.60
2019-06-26T14:18:36.532Z,10.55
2019-06-26T14:21:04.731Z,11.40
2019-06-26T14:23:32.944Z,11.30
2019-06-26T14:26:01.156Z,10.78
2019-06-26T14:28:29.343Z,10.00
2019-06-26T14:30:57.531Z,9.20
2019-06-26T14:33:25.761Z,10.03
2019-06-26T14:35:53.998Z,10.25
2019-06-26T14:38:22.192Z,10.60
2019-06-26T14:40:50.384Z,10.70
2019-06-26T14:43:18.660Z,11.30
2019-06-26T14:45:46.864Z,10.18
2019-06-26T14:48:15.102Z,10.35
2019-06-26T14:50:43.373Z,10.20
2019-06-26T14:53:11.580Z,9.95
2019-06-26T14:55:39.765Z,10.75
2019-06-26T14:58:07.960Z,10.50
2019-06-26T15:00:36.166Z,9.70
2019-06-26T15:03:04.378Z,10.13
2019-06-26T15:05:32.551Z,9.10
2019-06-26T15:08:00.761Z,9.95
2019-06-26T15:10:28.974Z,10.63
2019-06-26T15:12:57.161Z,10.47
2019-06-26T15:15:25.361Z,10.50
2019-06-26T15:17:53.574Z,9.70
2019-06-26T15:20:22.043Z,10.08
2019-06-26T15:22:50.291Z,10.10
2019-06-26T15:25:18.653Z,9.63
2019-06-26T15:27:46.836Z,9.25
2019-06-26T15:30:16.787Z,10.10
2019-06-26T15:32:45.062Z,10.00
2019-06-26T15:35:13.444Z,10.25
2019-06-26T15:37:44.654Z,11.20
2019-06-26T15:40:13.743Z,11.97
2019-06-26T15:42:41.534Z,11.50
2019-06-26T15:45:10.473Z,11.77
2019-06-26T15:47:38.689Z,10.80
2019-06-26T15:50:10.685Z,10.80
2019-06-26T15:52:37.444Z,10.50
2019-06-26T15:55:06.669Z,10.30
2019-06-26T15:57:34.901Z,10.18
2019-06-26T16:00:04.703Z,9.90
2019-06-26T16:02:32.921Z,9.73
2019-06-26T16:05:01.135Z,10.08
2019-06-26T16:07:29.424Z,9.73
2019-06-26T16:09:57.706Z,9.93
2019-06-26T16:12:25.880Z,9.30
2019-06-26T16:14:54.101Z,8.80
2019-06-26T16:17:38.929Z,9.50
2019-06-26T16:20:07.221Z,9.15
2019-06-26T16:22:35.467Z,9.70
2019-06-26T16:25:04.224Z,9.33
2019-06-26T16:27:32.437Z,9.20
2019-06-26T16:30:00.613Z,9.00
2019-06-26T16:32:28.801Z,8.93
2019-06-26T16:34:57.029Z,8.80
2019-06-26T16:37:25.333Z,8.43
2019-06-26T16:39:53.816Z,8.93
2019-06-26T16:42:21.999Z,8.53
2019-06-26T16:44:50.245Z,8.70
2019-06-26T16:47:18.520Z,8.65
2019-06-26T16:49:46.789Z,8.80
2019-06-26T16:52:14.998Z,8.37
2019-06-26T16:54:43.172Z,8.60
2019-06-26T16:57:11.397Z,7.53
2019-06-26T16:59:39.589Z,8.90
2019-06-26T17:02:07.774Z,8.90
2019-06-26T17:04:35.960Z,8.47
2019-06-26T17:07:04.147Z,9.20
2019-06-26T17:09:32.364Z,9.30
2019-06-26T17:12:00.556Z,8.50
2019-06-26T17:14:28.764Z,8.67
2019-06-26T17:16:56.937Z,8.50
2019-06-26T17:19:25.130Z,9.13
2019-06-26T17:21:53.329Z,8.97
2019-06-26T17:24:21.785Z,8.30
2019-06-26T17:26:49.995Z,7.60
2019-06-26T17:29:19.162Z,7.97
2019-06-26T17:31:47.909Z,8.90
2019-06-26T17:34:16.137Z,8.80
2019-06-26T17:36:44.312Z,8.20
2019-06-26T17:39:12.521Z,8.47
2019-06-26T17:41:43.990Z,8.27
2019-06-26T17:44:10.626Z,8.93
2019-06-26T17:46:38.825Z,8.53
2019-06-26T17:49:07.034Z,7.87
2019-06-26T17:51:35.230Z,7.90
2019-06-26T17:54:03.602Z,7.53
2019-06-26T17:56:31.793Z,6.87
2019-06-26T17:58:59.969Z,7.20
2019-06-26T18:01:28.213Z,6.70
2019-06-26T18:03:56.428Z,6.43
2019-06-26T18:06:24.665Z,6.13
2019-06-26T18:08:52.890Z,6.63
2019-06-26T18:11:21.067Z,5.73
2019-06-26T18:13:49.263Z,5.50
2019-06-26T18:16:17.478Z,5.87
2019-06-26T18:18:45.721Z,5.40
2019-06-26T18:21:13.921Z,5.77
2019-06-26T18:23:42.121Z,5.63
2019-06-26T18:26:13.565Z,5.33
2019-06-26T18:28:40.230Z,5.73
2019-06-26T18:31:08.412Z,5.67
2019-06-26T18:33:36.631Z,5.87
2019-06-26T18:36:04.847Z,5.60
2019-06-26T18:38:33.059Z,6.20
2019-06-26T18:41:01.344Z,6.47
2019-06-26T18:43:29.524Z,6.00
2019-06-26T18:45:57.703Z,6.07
2019-06-26T18:48:25.904Z,6.87
2019-06-26T18:50:54.119Z,6.50
2019-06-26T18:53:22.333Z,6.43
2019-06-26T18:55:50.538Z,6.47
2019-06-26T18:58:18.725Z,6.93
2019-06-26T19:00:46.922Z,6.93
2019-06-26T19:03:15.200Z,7.00
2019-06-26T19:05:44.736Z,7.33
2019-06-26T19:08:12.949Z,7.70
2019-06-26T19:10:41.150Z,7.13
2019-06-26T19:13:09.327Z,7.13
2019-06-26T19:15:37.549Z,7.30
2019-06-26T19:18:05.882Z,7.60
2019-06-26T19:20:34.138Z,8.23
2019-06-26T19:23:02.408Z,7.63
2019-06-26T19:25:30.721Z,7.60
2019-06-26T19:27:58.959Z,7.80
2019-06-26T19:30:27.225Z,7.50
2019-06-26T19:32:55.463Z,7.70
2019-06-26T19:35:23.685Z,7.70
2019-06-26T19:37:51.887Z,7.70
2019-06-26T19:40:23.646Z,7.73
2019-06-26T19:42:50.006Z,8.30
2019-06-26T19:45:18.358Z,8.17
2019-06-26T19:47:46.561Z,8.17
2019-06-26T19:50:14.958Z,8.00
2019-06-26T19:52:43.128Z,8.30
2019-06-26T19:55:11.377Z,8.07
2019-06-26T19:57:39.741Z,8.50
2019-06-26T20:00:11.149Z,9.00
2019-06-26T20:02:39.342Z,8.80
2019-06-26T20:05:07.896Z,8.47
2019-06-26T20:07:36.096Z,8.20
2019-06-26T20:10:05.336Z,8.90
2019-06-26T20:12:33.519Z,8.13
2019-06-26T20:15:03.084Z,9.03
2019-06-26T20:17:31.333Z,8.93
2019-06-26T20:19:59.545Z,8.90
2019-06-26T20:22:27.817Z,8.63
2019-06-26T20:24:57.435Z,7.70
2019-06-26T20:27:25.796Z,7.83
2019-06-26T20:29:53.964Z,7.53
2019-06-26T20:32:22.135Z,8.13
2019-06-26T20:34:50.457Z,8.53
2019-06-26T20:37:18.637Z,8.43
2019-06-26T20:39:46.850Z,8.30
2019-06-26T20:42:15.029Z,8.30
2019-06-26T20:44:43.207Z,7.00
2019-06-26T20:47:11.413Z,6.90
2019-06-26T20:49:52.571Z,7.87
2019-06-26T20:52:09.556Z,7.40
2019-06-26T20:54:37.745Z,7.20
2019-06-26T20:57:05.948Z,7.33
2019-06-26T20:59:34.149Z,7.47
2019-06-26T21:02:02.343Z,7.70
2019-06-26T21:04:30.584Z,7.00
2019-06-26T21:06:58.811Z,7.23
2019-06-26T21:09:26.999Z,7.20
2019-06-26T21:11:55.223Z,7.10
2019-06-26T21:14:23.419Z,7.10
2019-06-26T21:16:51.603Z,6.93
2019-06-26T21:19:19.776Z,6.70
2019-06-26T21:21:47.967Z,7.33
2019-06-26T21:24:16.181Z,6.80
2019-06-26T21:26:44.424Z,6.93
2019-06-26T21:29:12.635Z,7.60
2019-06-26T21:31:40.845Z,7.63
2019-06-26T21:34:09.177Z,7.33
2019-06-26T21:36:37.415Z,7.20
2019-06-26T21:39:06.226Z,7.30
2019-06-26T21:41:34.434Z,6.93
2019-06-26T21:44:02.617Z,7.70
2019-06-26T21:46:30.799Z,6.90
2019-06-26T21:48:59.050Z,7.20
2019-06-26T21:51:27.617Z,5.97
2019-06-26T21:53:55.794Z,7.10
2019-06-26T21:56:24.006Z,7.07
2019-06-26T21:58:52.180Z,6.27
2019-06-26T22:01:20.405Z,6.70
2019-06-26T22:03:48.781Z,6.47
2019-06-26T22:06:17.133Z,6.33
2019-06-26T22:08:45.307Z,6.47
2019-06-26T22:11:13.526Z,6.07
2019-06-26T22:13:41.691Z,6.03
2019-06-26T22:16:09.908Z,5.87
2019-06-26T22:18:38.101Z,6.17
2019-06-26T22:21:06.268Z,6.27
2019-06-26T22:23:34.485Z,5.87
2019-06-26T22:26:02.770Z,5.37
2019-06-26T22:28:30.969Z,5.83
2019-06-26T22:30:59.160Z,5.30
2019-06-26T22:33:27.369Z,5.40
2019-06-26T22:35:55.535Z,4.90
2019-06-26T22:38:23.754Z,5.40
2019-06-26T22:40:51.957Z,5.23
2019-06-26T22:43:20.165Z,4.93
2019-06-26T22:45:48.377Z,5.03
2019-06-26T22:48:16.798Z,4.67
2019-06-26T22:50:45.011Z,5.57
2019-06-26T22:53:13.256Z,5.00
2019-06-26T22:55:41.540Z,5.37
2019-06-26T22:58:09.723Z,5.60
2019-06-26T23:00:37.941Z,5.20
2019-06-26T23:03:06.116Z,5.77
2019-06-26T23:05:34.324Z,5.87
2019-06-26T23:08:02.538Z,6.17
2019-06-26T23:10:30.704Z,6.00
2019-06-26T23:12:59.068Z,6.23
2019-06-26T23:15:27.308Z,6.63
2019-06-26T23:17:55.773Z,6.40
2019-06-26T23:20:24.079Z,6.60
2019-06-26T23:22:52.276Z,6.40
2019-06-26T23:25:20.494Z,6.40
2019-06-26T23:27:48.681Z,6.80
2019-06-26T23:30:17.444Z,7.00
2019-06-26T23:32:45.620Z,6.77
2019-06-26T23:35:13.836Z,6.70
2019-06-26T23:37:42.012Z,7.07
2019-06-26T23:40:10.363Z,7.00
2019-06-26T23:42:38.566Z,6.73
2019-06-26T23:45:07.086Z,8.00
2019-06-26T23:47:35.313Z,7.20
2019-06-26T23:50:04.315Z,6.93
2019-06-26T23:52:32.694Z,7.50
2019-06-26T23:55:00.866Z,7.50
2019-06-26T23:57:29.041Z,7.00
2019-06-26T23:59:57.231Z,7.50
